PILOTS ONLINE: 292    ATC ONLINE: 54

Location

IATA YVR
City Vancouver
Country  Canada
Latitude 49° 11' 38" N
Longitude 123° 11' 2" W
Elevation 14 ft
Type Large Airport

Weather

METAR
2014/07/11 03:00
CYVR 110300Z 28006KT 30SM SKC 20/15 A2988 RMK SLP119 DENSITY ALT 600FT
TAF
2014/07/11 03:42
TAF CYVR 110238Z 1103/1206 29010KT P6SM SKC 
      BECMG 1104/1106 12005KT 
      BECMG 1115/1117 29010KT 
      RMK NXT FCST BY 110600Z

Runways

08L/26R 9940 ft / 200 ft
08R/26L 11500 ft / 200 ft
12/30 7300 ft / 200 ft
XX/26A 3500 ft / 75 ft

Outbound flights

WJA1754  KSNA - Santa Ana, United States
James Knappett
ACA224  CYYC - Calgary, Canada
David French

Inbound flights

WJA1697  KLAX - Los Angeles, United States
Normand Naud

Spotted incorrect airport information? Please login with your VATSIM ID.